sensor_id;sensor_type;location;lat;lon;timestamp;P1;durP1;ratioP1;P2;durP2;ratioP2
55013;SDS011;40916;51.632;5.552;2023-04-03T00:03:58;4.5;;;6.8;;
55013;SDS011;40916;51.632;5.552;2023-04-03T00:08:58;4;;;8.3;;
55013;SDS011;40916;51.632;5.552;2023-04-03T00:13:58;4.1;;;9.2;;
55013;SDS011;40916;51.632;5.552;2023-04-03T00:18:58;4.3;;;11.3;;
55013;SDS011;40916;51.632;5.552;2023-04-03T00:23:58;4.5;;;9;;
55013;SDS011;40916;51.632;5.552;2023-04-03T00:28:58;3.8;;;6.5;;
55013;SDS011;40916;51.632;5.552;2023-04-03T00:33:58;4.1;;;10.1;;
55013;SDS011;40916;51.632;5.552;2023-04-03T00:38:58;4;;;10;;
55013;SDS011;40916;51.632;5.552;2023-04-03T00:43:58;4.2;;;10.5;;
55013;SDS011;40916;51.632;5.552;2023-04-03T00:48:58;4.6;;;10.1;;
55013;SDS011;40916;51.632;5.552;2023-04-03T00:53:59;4.4;;;8.8;;
55013;SDS011;40916;51.632;5.552;2023-04-03T00:58:59;4.2;;;7.7;;
55013;SDS011;40916;51.632;5.552;2023-04-03T01:03:58;4.2;;;6.9;;
55013;SDS011;40916;51.632;5.552;2023-04-03T01:08:58;4.3;;;11.9;;
55013;SDS011;40916;51.632;5.552;2023-04-03T01:13:58;4;;;9.4;;
55013;SDS011;40916;51.632;5.552;2023-04-03T01:18:58;3.9;;;6.5;;
55013;SDS011;40916;51.632;5.552;2023-04-03T01:24:01;4.2;;;8.7;;
55013;SDS011;40916;51.632;5.552;2023-04-03T01:28:58;3.9;;;9.5;;
55013;SDS011;40916;51.632;5.552;2023-04-03T01:33:58;4.1;;;9.5;;
55013;SDS011;40916;51.632;5.552;2023-04-03T01:38:59;4.2;;;9;;
55013;SDS011;40916;51.632;5.552;2023-04-03T01:43:58;4.1;;;8.9;;
55013;SDS011;40916;51.632;5.552;2023-04-03T01:48:58;3.8;;;7.7;;
55013;SDS011;40916;51.632;5.552;2023-04-03T01:53:58;4;;;9.2;;
55013;SDS011;40916;51.632;5.552;2023-04-03T01:58:58;3.7;;;7.9;;
55013;SDS011;40916;51.632;5.552;2023-04-03T02:03:58;3.6;;;7;;
55013;SDS011;40916;51.632;5.552;2023-04-03T02:08:58;3.7;;;10.2;;
55013;SDS011;40916;51.632;5.552;2023-04-03T02:13:58;3.4;;;6.5;;
55013;SDS011;40916;51.632;5.552;2023-04-03T02:18:58;3.4;;;10.2;;
55013;SDS011;40916;51.632;5.552;2023-04-03T02:23:58;3.5;;;7.8;;
55013;SDS011;40916;51.632;5.552;2023-04-03T02:28:58;3.4;;;8.2;;
55013;SDS011;40916;51.632;5.552;2023-04-03T02:33:58;3.1;;;5.7;;
55013;SDS011;40916;51.632;5.552;2023-04-03T02:38:58;3;;;5.9;;
55013;SDS011;40916;51.632;5.552;2023-04-03T02:43:58;3.1;;;6.7;;
55013;SDS011;40916;51.632;5.552;2023-04-03T02:48:58;3.6;;;8;;
55013;SDS011;40916;51.632;5.552;2023-04-03T02:53:58;2.9;;;7.4;;
55013;SDS011;40916;51.632;5.552;2023-04-03T02:58:58;2.9;;;7;;
55013;SDS011;40916;51.632;5.552;2023-04-03T03:03:58;2.8;;;6.2;;
55013;SDS011;40916;51.632;5.552;2023-04-03T03:08:58;3;;;9.5;;
55013;SDS011;40916;51.632;5.552;2023-04-03T03:13:58;2.9;;;7.5;;
55013;SDS011;40916;51.632;5.552;2023-04-03T03:18:58;2.6;;;6.7;;
55013;SDS011;40916;51.632;5.552;2023-04-03T03:23:58;2.6;;;6.8;;
55013;SDS011;40916;51.632;5.552;2023-04-03T03:28:58;2.8;;;5.4;;
55013;SDS011;40916;51.632;5.552;2023-04-03T03:33:58;2.6;;;10.7;;
55013;SDS011;40916;51.632;5.552;2023-04-03T03:38:58;2.4;;;5.7;;
55013;SDS011;40916;51.632;5.552;2023-04-03T03:43:58;2.2;;;4.3;;
55013;SDS011;40916;51.632;5.552;2023-04-03T03:48:58;2.9;;;8.7;;
55013;SDS011;40916;51.632;5.552;2023-04-03T03:53:58;2.4;;;6.8;;
55013;SDS011;40916;51.632;5.552;2023-04-03T03:58:58;2.6;;;9.9;;
55013;SDS011;40916;51.632;5.552;2023-04-03T04:03:58;2.8;;;6.8;;
55013;SDS011;40916;51.632;5.552;2023-04-03T04:08:58;2.5;;;5.8;;
55013;SDS011;40916;51.632;5.552;2023-04-03T04:13:58;2.6;;;5.3;;
55013;SDS011;40916;51.632;5.552;2023-04-03T04:18:58;2.4;;;6.3;;
55013;SDS011;40916;51.632;5.552;2023-04-03T04:23:58;2.7;;;7.4;;
55013;SDS011;40916;51.632;5.552;2023-04-03T04:28:58;2.3;;;8.6;;
55013;SDS011;40916;51.632;5.552;2023-04-03T04:33:58;2.4;;;7.2;;
55013;SDS011;40916;51.632;5.552;2023-04-03T04:38:58;2.2;;;4.9;;
55013;SDS011;40916;51.632;5.552;2023-04-03T04:43:58;2.2;;;6;;
55013;SDS011;40916;51.632;5.552;2023-04-03T04:48:58;2.5;;;8;;
55013;SDS011;40916;51.632;5.552;2023-04-03T04:53:58;2.4;;;10.2;;
55013;SDS011;40916;51.632;5.552;2023-04-03T04:58:58;2.4;;;5.4;;
55013;SDS011;40916;51.632;5.552;2023-04-03T05:03:58;2.7;;;8;;
55013;SDS011;40916;51.632;5.552;2023-04-03T05:08:58;2.9;;;7.8;;
55013;SDS011;40916;51.632;5.552;2023-04-03T05:13:58;2.1;;;4.9;;
55013;SDS011;40916;51.632;5.552;2023-04-03T05:18:58;2.3;;;8.6;;
55013;SDS011;40916;51.632;5.552;2023-04-03T05:23:58;2.4;;;6.4;;
55013;SDS011;40916;51.632;5.552;2023-04-03T05:28:58;2.3;;;9.1;;
55013;SDS011;40916;51.632;5.552;2023-04-03T05:33:58;1.9;;;7.9;;
55013;SDS011;40916;51.632;5.552;2023-04-03T05:38:58;3.2;;;11.4;;
55013;SDS011;40916;51.632;5.552;2023-04-03T05:43:58;2.1;;;6.9;;
55013;SDS011;40916;51.632;5.552;2023-04-03T05:48:58;2.3;;;7.2;;
55013;SDS011;40916;51.632;5.552;2023-04-03T05:53:59;2.5;;;8.2;;
55013;SDS011;40916;51.632;5.552;2023-04-03T05:58:58;2.3;;;9.2;;
55013;SDS011;40916;51.632;5.552;2023-04-03T06:03:58;3.3;;;6.8;;
55013;SDS011;40916;51.632;5.552;2023-04-03T06:08:58;2.6;;;9.4;;
55013;SDS011;40916;51.632;5.552;2023-04-03T06:13:58;2.4;;;11.2;;
55013;SDS011;40916;51.632;5.552;2023-04-03T06:18:58;2.2;;;8.1;;
55013;SDS011;40916;51.632;5.552;2023-04-03T06:23:58;1.8;;;7.1;;
55013;SDS011;40916;51.632;5.552;2023-04-03T06:28:58;3.4;;;16.5;;
55013;SDS011;40916;51.632;5.552;2023-04-03T06:33:58;2;;;6.4;;
55013;SDS011;40916;51.632;5.552;2023-04-03T06:38:58;2.2;;;7.3;;
55013;SDS011;40916;51.632;5.552;2023-04-03T06:43:58;2.8;;;10.9;;
55013;SDS011;40916;51.632;5.552;2023-04-03T06:48:58;2.6;;;9.8;;
55013;SDS011;40916;51.632;5.552;2023-04-03T06:53:58;3.2;;;12.4;;
55013;SDS011;40916;51.632;5.552;2023-04-03T06:58:58;3.2;;;11;;
55013;SDS011;40916;51.632;5.552;2023-04-03T07:03:58;2.2;;;10.2;;
55013;SDS011;40916;51.632;5.552;2023-04-03T07:08:58;2.5;;;8.3;;
55013;SDS011;40916;51.632;5.552;2023-04-03T07:13:58;2.3;;;8.8;;
55013;SDS011;40916;51.632;5.552;2023-04-03T07:18:58;2.3;;;8.8;;
55013;SDS011;40916;51.632;5.552;2023-04-03T07:23:58;2.4;;;8.9;;
55013;SDS011;40916;51.632;5.552;2023-04-03T07:28:58;2.6;;;11.3;;
55013;SDS011;40916;51.632;5.552;2023-04-03T07:33:58;2.2;;;6.9;;
55013;SDS011;40916;51.632;5.552;2023-04-03T07:38:58;2.3;;;9;;
55013;SDS011;40916;51.632;5.552;2023-04-03T07:43:58;1.9;;;5.3;;
55013;SDS011;40916;51.632;5.552;2023-04-03T07:48:58;2.3;;;10.9;;
55013;SDS011;40916;51.632;5.552;2023-04-03T07:53:58;1.8;;;5.4;;
55013;SDS011;40916;51.632;5.552;2023-04-03T07:58:58;2.9;;;9.4;;
55013;SDS011;40916;51.632;5.552;2023-04-03T08:03:58;2.1;;;7.9;;
55013;SDS011;40916;51.632;5.552;2023-04-03T08:08:58;1.9;;;7.8;;
55013;SDS011;40916;51.632;5.552;2023-04-03T08:13:58;2;;;5.8;;
55013;SDS011;40916;51.632;5.552;2023-04-03T08:18:58;2.2;;;8.2;;
55013;SDS011;40916;51.632;5.552;2023-04-03T08:23:58;2.5;;;7.6;;
55013;SDS011;40916;51.632;5.552;2023-04-03T08:28:58;2.3;;;6.5;;
55013;SDS011;40916;51.632;5.552;2023-04-03T08:33:58;1.8;;;8;;
55013;SDS011;40916;51.632;5.552;2023-04-03T08:38:58;1.8;;;6.7;;
55013;SDS011;40916;51.632;5.552;2023-04-03T08:44:00;1.4;;;5.6;;
55013;SDS011;40916;51.632;5.552;2023-04-03T08:48:58;1.4;;;5.1;;
55013;SDS011;40916;51.632;5.552;2023-04-03T08:53:59;1.5;;;4.3;;
55013;SDS011;40916;51.632;5.552;2023-04-03T08:58:59;1.6;;;12.4;;
55013;SDS011;40916;51.632;5.552;2023-04-03T09:03:58;1.2;;;7.4;;
55013;SDS011;40916;51.632;5.552;2023-04-03T09:09:01;1.2;;;7.2;;
55013;SDS011;40916;51.632;5.552;2023-04-03T09:13:59;1.9;;;6;;
55013;SDS011;40916;51.632;5.552;2023-04-03T09:18:59;1.2;;;3.4;;
55013;SDS011;40916;51.632;5.552;2023-04-03T09:23:58;1.3;;;4.7;;
55013;SDS011;40916;51.632;5.552;2023-04-03T09:28:58;1.2;;;3.1;;
55013;SDS011;40916;51.632;5.552;2023-04-03T09:33:58;1.4;;;4.6;;
55013;SDS011;40916;51.632;5.552;2023-04-03T09:39:02;1.2;;;3.2;;
55013;SDS011;40916;51.632;5.552;2023-04-03T09:43:58;0.9;;;4.8;;
55013;SDS011;40916;51.632;5.552;2023-04-03T09:48:58;1.1;;;3;;
55013;SDS011;40916;51.632;5.552;2023-04-03T09:53:58;0.9;;;5;;
55013;SDS011;40916;51.632;5.552;2023-04-03T09:59:13;0.7;;;3;;
55013;SDS011;40916;51.632;5.552;2023-04-03T10:04:06;0.8;;;2.8;;
55013;SDS011;40916;51.632;5.552;2023-04-03T10:08:58;0.6;;;1.3;;
55013;SDS011;40916;51.632;5.552;2023-04-03T10:13:58;0.9;;;2.9;;
55013;SDS011;40916;51.632;5.552;2023-04-03T10:19:02;0.7;;;2.1;;
55013;SDS011;40916;51.632;5.552;2023-04-03T10:24:00;0.8;;;2.4;;
55013;SDS011;40916;51.632;5.552;2023-04-03T10:29:00;0.7;;;2.1;;
55013;SDS011;40916;51.632;5.552;2023-04-03T10:33:59;0.8;;;2.4;;
55013;SDS011;40916;51.632;5.552;2023-04-03T10:39:00;0.6;;;2.7;;
55013;SDS011;40916;51.632;5.552;2023-04-03T10:43:59;0.7;;;1.6;;
55013;SDS011;40916;51.632;5.552;2023-04-03T10:49:01;0.8;;;4.1;;
55013;SDS011;40916;51.632;5.552;2023-04-03T10:54:00;1;;;2;;
55013;SDS011;40916;51.632;5.552;2023-04-03T10:58:58;0.9;;;3;;
55013;SDS011;40916;51.632;5.552;2023-04-03T11:03:58;1.3;;;4.4;;
55013;SDS011;40916;51.632;5.552;2023-04-03T11:08:59;1;;;2.9;;
55013;SDS011;40916;51.632;5.552;2023-04-03T11:13:58;1;;;3.7;;
55013;SDS011;40916;51.632;5.552;2023-04-03T11:18:59;0.9;;;2.5;;
55013;SDS011;40916;51.632;5.552;2023-04-03T11:23:58;1;;;3;;
55013;SDS011;40916;51.632;5.552;2023-04-03T11:28:58;1;;;2.5;;
55013;SDS011;40916;51.632;5.552;2023-04-03T11:33:59;1;;;3.4;;
55013;SDS011;40916;51.632;5.552;2023-04-03T11:38:58;1.1;;;4.1;;
55013;SDS011;40916;51.632;5.552;2023-04-03T11:43:59;0.9;;;3.2;;
55013;SDS011;40916;51.632;5.552;2023-04-03T11:48:57;0.8;;;2.7;;
55013;SDS011;40916;51.632;5.552;2023-04-03T11:54:04;0.9;;;4.3;;
55013;SDS011;40916;51.632;5.552;2023-04-03T11:59:29;0.9;;;2.7;;
55013;SDS011;40916;51.632;5.552;2023-04-03T12:04:05;1.1;;;3.7;;
55013;SDS011;40916;51.632;5.552;2023-04-03T12:08:57;1.3;;;2.7;;
55013;SDS011;40916;51.632;5.552;2023-04-03T12:14:02;1.2;;;2.8;;
55013;SDS011;40916;51.632;5.552;2023-04-03T12:18:59;1;;;3;;
55013;SDS011;40916;51.632;5.552;2023-04-03T12:23:59;1.3;;;4.4;;
55013;SDS011;40916;51.632;5.552;2023-04-03T12:28:57;1.1;;;3;;
55013;SDS011;40916;51.632;5.552;2023-04-03T12:34:01;1.2;;;3.4;;
55013;SDS011;40916;51.632;5.552;2023-04-03T12:39:01;1.2;;;4.3;;
55013;SDS011;40916;51.632;5.552;2023-04-03T12:44:01;1.4;;;3.3;;
55013;SDS011;40916;51.632;5.552;2023-04-03T12:48:58;1.4;;;4.6;;
55013;SDS011;40916;51.632;5.552;2023-04-03T12:54:00;1.2;;;3.4;;
55013;SDS011;40916;51.632;5.552;2023-04-03T12:59:12;1.2;;;4.7;;
55013;SDS011;40916;51.632;5.552;2023-04-03T13:03:57;1.1;;;2.9;;
55013;SDS011;40916;51.632;5.552;2023-04-03T13:08:59;1.3;;;5.4;;
55013;SDS011;40916;51.632;5.552;2023-04-03T13:13:58;1.4;;;3.8;;
55013;SDS011;40916;51.632;5.552;2023-04-03T13:18:57;1.4;;;4.1;;
55013;SDS011;40916;51.632;5.552;2023-04-03T13:23:58;1.6;;;5.9;;
55013;SDS011;40916;51.632;5.552;2023-04-03T13:28:59;1.4;;;3.6;;
55013;SDS011;40916;51.632;5.552;2023-04-03T13:33:58;1.6;;;10.8;;
55013;SDS011;40916;51.632;5.552;2023-04-03T13:38:58;1.7;;;6;;
55013;SDS011;40916;51.632;5.552;2023-04-03T13:44:15;1.2;;;3.9;;
55013;SDS011;40916;51.632;5.552;2023-04-03T13:48:57;1.4;;;5.6;;
55013;SDS011;40916;51.632;5.552;2023-04-03T13:53:59;1.1;;;5;;
55013;SDS011;40916;51.632;5.552;2023-04-03T13:59:00;1.7;;;6.1;;
55013;SDS011;40916;51.632;5.552;2023-04-03T14:03:58;1.3;;;3.7;;
55013;SDS011;40916;51.632;5.552;2023-04-03T14:08:57;1.5;;;5.3;;
55013;SDS011;40916;51.632;5.552;2023-04-03T14:13:58;1.6;;;3.8;;
55013;SDS011;40916;51.632;5.552;2023-04-03T14:18:57;1.4;;;3.5;;
55013;SDS011;40916;51.632;5.552;2023-04-03T14:23:57;2;;;6.3;;
55013;SDS011;40916;51.632;5.552;2023-04-03T14:28:57;1.3;;;3.8;;
55013;SDS011;40916;51.632;5.552;2023-04-03T14:33:57;1.5;;;4.8;;
55013;SDS011;40916;51.632;5.552;2023-04-03T14:38:57;1.4;;;3.7;;
55013;SDS011;40916;51.632;5.552;2023-04-03T14:43:57;1.9;;;4.1;;
55013;SDS011;40916;51.632;5.552;2023-04-03T14:48:57;1.5;;;4;;
55013;SDS011;40916;51.632;5.552;2023-04-03T14:53:57;1.3;;;4.4;;
55013;SDS011;40916;51.632;5.552;2023-04-03T14:58:58;1.8;;;4.4;;
55013;SDS011;40916;51.632;5.552;2023-04-03T15:03:57;1.4;;;3.2;;
55013;SDS011;40916;51.632;5.552;2023-04-03T15:08:57;1.8;;;7.9;;
55013;SDS011;40916;51.632;5.552;2023-04-03T15:13:57;1.6;;;7;;
55013;SDS011;40916;51.632;5.552;2023-04-03T15:18:57;1.8;;;5.5;;
55013;SDS011;40916;51.632;5.552;2023-04-03T15:23:57;1.7;;;6.5;;
55013;SDS011;40916;51.632;5.552;2023-04-03T15:28:57;1.9;;;5.1;;
55013;SDS011;40916;51.632;5.552;2023-04-03T15:33:57;2.2;;;7.9;;
55013;SDS011;40916;51.632;5.552;2023-04-03T15:38:57;2.3;;;7.2;;
55013;SDS011;40916;51.632;5.552;2023-04-03T15:43:57;1.8;;;4.8;;
55013;SDS011;40916;51.632;5.552;2023-04-03T15:48:57;1.6;;;4;;
55013;SDS011;40916;51.632;5.552;2023-04-03T15:53:57;1.8;;;6.6;;
55013;SDS011;40916;51.632;5.552;2023-04-03T15:58:57;2;;;5.4;;
55013;SDS011;40916;51.632;5.552;2023-04-03T16:03:57;1.7;;;4.1;;
55013;SDS011;40916;51.632;5.552;2023-04-03T16:08:57;3.4;;;7.1;;
55013;SDS011;40916;51.632;5.552;2023-04-03T16:13:57;1.7;;;5;;
55013;SDS011;40916;51.632;5.552;2023-04-03T16:18:57;1.7;;;4.5;;
55013;SDS011;40916;51.632;5.552;2023-04-03T16:23:57;2;;;5.1;;
55013;SDS011;40916;51.632;5.552;2023-04-03T16:28:57;1.9;;;5.9;;
55013;SDS011;40916;51.632;5.552;2023-04-03T16:33:57;1.4;;;3.6;;
55013;SDS011;40916;51.632;5.552;2023-04-03T16:38:57;1.4;;;3.6;;
55013;SDS011;40916;51.632;5.552;2023-04-03T16:43:57;2.2;;;5.4;;
55013;SDS011;40916;51.632;5.552;2023-04-03T16:48:57;1.7;;;5.8;;
55013;SDS011;40916;51.632;5.552;2023-04-03T16:53:57;1.5;;;6.2;;
55013;SDS011;40916;51.632;5.552;2023-04-03T16:58:57;1.9;;;9.5;;
55013;SDS011;40916;51.632;5.552;2023-04-03T17:03:57;1.7;;;9.7;;
55013;SDS011;40916;51.632;5.552;2023-04-03T17:08:57;2.3;;;8.3;;
55013;SDS011;40916;51.632;5.552;2023-04-03T17:13:57;2;;;7.2;;
55013;SDS011;40916;51.632;5.552;2023-04-03T17:18:57;1.6;;;7.4;;
55013;SDS011;40916;51.632;5.552;2023-04-03T17:23:58;2.1;;;8.3;;
55013;SDS011;40916;51.632;5.552;2023-04-03T17:28:57;2;;;4.2;;
55013;SDS011;40916;51.632;5.552;2023-04-03T17:33:57;2.1;;;4.5;;
55013;SDS011;40916;51.632;5.552;2023-04-03T17:38:57;2.1;;;6.2;;
55013;SDS011;40916;51.632;5.552;2023-04-03T17:43:57;1.8;;;4.3;;
55013;SDS011;40916;51.632;5.552;2023-04-03T17:48:57;1.9;;;7;;
55013;SDS011;40916;51.632;5.552;2023-04-03T17:53:57;1.7;;;8.1;;
55013;SDS011;40916;51.632;5.552;2023-04-03T17:58:57;1.8;;;5.8;;
55013;SDS011;40916;51.632;5.552;2023-04-03T18:03:57;2.4;;;8.2;;
55013;SDS011;40916;51.632;5.552;2023-04-03T18:08:57;2.3;;;9.8;;
55013;SDS011;40916;51.632;5.552;2023-04-03T18:13:58;2;;;5.8;;
55013;SDS011;40916;51.632;5.552;2023-04-03T18:18:57;2;;;8;;
55013;SDS011;40916;51.632;5.552;2023-04-03T18:23:57;2;;;8.2;;
55013;SDS011;40916;51.632;5.552;2023-04-03T18:28:57;1.8;;;4.9;;
55013;SDS011;40916;51.632;5.552;2023-04-03T18:33:57;1.6;;;4.2;;
55013;SDS011;40916;51.632;5.552;2023-04-03T18:38:57;1.8;;;5.3;;
55013;SDS011;40916;51.632;5.552;2023-04-03T18:43:58;2;;;7.6;;
55013;SDS011;40916;51.632;5.552;2023-04-03T18:48:57;1.9;;;5.8;;
55013;SDS011;40916;51.632;5.552;2023-04-03T18:53:57;2;;;7.4;;
55013;SDS011;40916;51.632;5.552;2023-04-03T18:58:57;2.1;;;8.2;;
55013;SDS011;40916;51.632;5.552;2023-04-03T19:03:57;2;;;7.3;;
55013;SDS011;40916;51.632;5.552;2023-04-03T19:08:57;1.9;;;5;;
55013;SDS011;40916;51.632;5.552;2023-04-03T19:13:57;2.1;;;5.2;;
55013;SDS011;40916;51.632;5.552;2023-04-03T19:18:57;1.6;;;4.7;;
55013;SDS011;40916;51.632;5.552;2023-04-03T19:23:57;1.5;;;5.1;;
55013;SDS011;40916;51.632;5.552;2023-04-03T19:28:57;2;;;5.7;;
55013;SDS011;40916;51.632;5.552;2023-04-03T19:33:57;2.2;;;5.8;;
55013;SDS011;40916;51.632;5.552;2023-04-03T19:38:57;1.9;;;6.6;;
55013;SDS011;40916;51.632;5.552;2023-04-03T19:43:57;1.7;;;5.7;;
55013;SDS011;40916;51.632;5.552;2023-04-03T19:48:57;2.4;;;8.1;;
55013;SDS011;40916;51.632;5.552;2023-04-03T19:53:57;2;;;6.4;;
55013;SDS011;40916;51.632;5.552;2023-04-03T19:58:57;1.8;;;4.8;;
55013;SDS011;40916;51.632;5.552;2023-04-03T20:03:57;1.8;;;4;;
55013;SDS011;40916;51.632;5.552;2023-04-03T20:08:57;2.1;;;4.5;;
55013;SDS011;40916;51.632;5.552;2023-04-03T20:13:57;2.1;;;6.3;;
55013;SDS011;40916;51.632;5.552;2023-04-03T20:18:57;1.8;;;6.6;;
55013;SDS011;40916;51.632;5.552;2023-04-03T20:23:57;1.9;;;5.1;;
55013;SDS011;40916;51.632;5.552;2023-04-03T20:28:58;1.7;;;4.7;;
55013;SDS011;40916;51.632;5.552;2023-04-03T20:33:57;1.8;;;6.5;;
55013;SDS011;40916;51.632;5.552;2023-04-03T20:38:57;1.9;;;4.9;;
55013;SDS011;40916;51.632;5.552;2023-04-03T20:43:57;1.9;;;6.8;;
55013;SDS011;40916;51.632;5.552;2023-04-03T20:48:57;2;;;5.1;;
55013;SDS011;40916;51.632;5.552;2023-04-03T20:53:57;2.5;;;7.6;;
55013;SDS011;40916;51.632;5.552;2023-04-03T20:58:57;3.5;;;7.7;;
55013;SDS011;40916;51.632;5.552;2023-04-03T21:03:59;1.9;;;6.9;;
55013;SDS011;40916;51.632;5.552;2023-04-03T21:23:57;2.6;;;8.2;;
55013;SDS011;40916;51.632;5.552;2023-04-03T21:28:57;2.6;;;6.8;;
55013;SDS011;40916;51.632;5.552;2023-04-03T21:33:57;2.2;;;6.4;;
55013;SDS011;40916;51.632;5.552;2023-04-03T21:38:57;2.6;;;7.7;;
55013;SDS011;40916;51.632;5.552;2023-04-03T21:43:57;2.5;;;8.4;;
55013;SDS011;40916;51.632;5.552;2023-04-03T21:48:57;2.4;;;6.1;;
55013;SDS011;40916;51.632;5.552;2023-04-03T21:53:57;2.7;;;8.1;;
55013;SDS011;40916;51.632;5.552;2023-04-03T21:58:59;2.5;;;6.4;;
55013;SDS011;40916;51.632;5.552;2023-04-03T22:03:57;3;;;8.2;;
55013;SDS011;40916;51.632;5.552;2023-04-03T22:08:57;1.9;;;3.9;;
55013;SDS011;40916;51.632;5.552;2023-04-03T22:13:57;2.3;;;6.8;;
55013;SDS011;40916;51.632;5.552;2023-04-03T22:18:57;2.5;;;5.9;;
55013;SDS011;40916;51.632;5.552;2023-04-03T22:23:57;2.4;;;6.4;;
55013;SDS011;40916;51.632;5.552;2023-04-03T22:28:57;2.6;;;9.7;;
55013;SDS011;40916;51.632;5.552;2023-04-03T22:33:57;2.7;;;8.3;;
55013;SDS011;40916;51.632;5.552;2023-04-03T22:38:57;2.5;;;6.2;;
55013;SDS011;40916;51.632;5.552;2023-04-03T22:43:57;2.5;;;5.9;;
55013;SDS011;40916;51.632;5.552;2023-04-03T22:48:57;2.7;;;7.3;;
55013;SDS011;40916;51.632;5.552;2023-04-03T22:53:57;2.7;;;6.3;;
55013;SDS011;40916;51.632;5.552;2023-04-03T22:58:57;2.5;;;6.3;;
55013;SDS011;40916;51.632;5.552;2023-04-03T23:03:57;2.9;;;7.1;;
55013;SDS011;40916;51.632;5.552;2023-04-03T23:08:57;2.7;;;6.9;;
55013;SDS011;40916;51.632;5.552;2023-04-03T23:13:57;2.8;;;8;;
55013;SDS011;40916;51.632;5.552;2023-04-03T23:18:57;2.8;;;6.9;;
55013;SDS011;40916;51.632;5.552;2023-04-03T23:23:57;3.8;;;8.7;;
55013;SDS011;40916;51.632;5.552;2023-04-03T23:28:57;3.1;;;8.8;;
55013;SDS011;40916;51.632;5.552;2023-04-03T23:33:57;2.7;;;8.5;;
55013;SDS011;40916;51.632;5.552;2023-04-03T23:38:57;2.6;;;7.5;;
55013;SDS011;40916;51.632;5.552;2023-04-03T23:43:57;2.4;;;5.8;;
55013;SDS011;40916;51.632;5.552;2023-04-03T23:48:57;2.6;;;6.5;;
55013;SDS011;40916;51.632;5.552;2023-04-03T23:53:57;2.6;;;7.3;;
55013;SDS011;40916;51.632;5.552;2023-04-03T23:58:57;2.6;;;7.9;;
